createdAt,value
2022-11-16T00:01:03.692Z,7.81
2022-11-16T00:04:06.331Z,7.85
2022-11-16T00:07:08.796Z,7.86
2022-11-16T00:10:12.053Z,7.86
2022-11-16T00:13:14.419Z,7.91
2022-11-16T00:16:18.204Z,7.80
2022-11-16T00:19:20.534Z,7.96
2022-11-16T00:22:23.093Z,7.90
2022-11-16T00:25:25.332Z,7.72
2022-11-16T00:28:28.504Z,7.92
2022-11-16T00:31:31.174Z,7.93
2022-11-16T00:34:33.891Z,7.89
2022-11-16T00:37:36.353Z,7.90
2022-11-16T00:40:38.900Z,7.95
2022-11-16T00:43:41.234Z,7.87
2022-11-16T00:46:44.200Z,7.91
2022-11-16T00:49:46.395Z,7.91
2022-11-16T00:52:48.902Z,7.85
2022-11-16T00:55:51.127Z,7.89
2022-11-16T00:58:54.512Z,7.83
2022-11-16T01:01:56.881Z,7.82
2022-11-16T01:04:59.414Z,7.87
2022-11-16T01:08:01.698Z,7.83
2022-11-16T01:11:25.950Z,7.85
2022-11-16T01:14:28.231Z,7.90
2022-11-16T01:17:30.772Z,7.93
2022-11-16T01:20:32.987Z,7.87
2022-11-16T01:23:35.600Z,7.85
2022-11-16T01:26:37.985Z,7.93
2022-11-16T01:29:41.211Z,7.95
2022-11-16T01:32:44.012Z,7.85
2022-11-16T01:35:46.907Z,7.95
2022-11-16T01:38:50.695Z,7.95
2022-11-16T01:41:53.689Z,7.82
2022-11-16T01:45:43.989Z,7.80
2022-11-16T01:48:52.842Z,7.95
2022-11-16T01:52:03.050Z,7.96
2022-11-16T01:55:07.128Z,7.90
2022-11-16T01:58:17.372Z,7.79
2022-11-16T02:01:20.786Z,7.91
2022-11-16T02:04:24.072Z,7.82
2022-11-16T02:07:57.716Z,7.98
2022-11-16T02:11:21.752Z,7.87
2022-11-16T02:14:42.334Z,7.98
2022-11-16T02:17:45.745Z,7.94
2022-11-16T02:21:06.935Z,7.93
2022-11-16T02:24:23.294Z,7.89
2022-11-16T02:27:44.717Z,7.94
2022-11-16T02:30:50.708Z,7.92
2022-11-16T02:33:56.198Z,7.95
2022-11-16T02:37:01.667Z,7.90
2022-11-16T02:40:07.959Z,8.00
2022-11-16T02:43:15.518Z,8.00
2022-11-16T02:46:29.606Z,7.98
2022-11-16T02:49:36.438Z,8.01
2022-11-16T02:52:39.004Z,7.99
2022-11-16T02:55:41.707Z,8.00
2022-11-16T02:58:44.334Z,7.98
2022-11-16T03:02:17.086Z,8.01
2022-11-16T03:05:32.120Z,8.06
2022-11-16T03:08:39.998Z,8.04
2022-11-16T03:12:00.205Z,7.93
2022-11-16T03:15:06.042Z,8.06
2022-11-16T03:18:09.108Z,7.99
2022-11-16T03:21:18.308Z,7.86
2022-11-16T03:24:20.858Z,8.01
2022-11-16T03:27:47.823Z,8.02
2022-11-16T03:30:56.192Z,8.06
2022-11-16T03:34:03.850Z,7.97
2022-11-16T03:37:06.543Z,7.98
2022-11-16T03:40:12.705Z,8.06
2022-11-16T03:43:15.888Z,7.99
2022-11-16T03:46:18.842Z,8.13
2022-11-16T03:49:22.946Z,7.94
2022-11-16T03:52:26.843Z,8.06
2022-11-16T03:55:29.165Z,8.08
2022-11-16T03:58:32.126Z,8.00
2022-11-16T04:01:34.797Z,8.04
2022-11-16T04:04:56.650Z,8.02
2022-11-16T04:08:17.770Z,8.06
2022-11-16T04:11:40.931Z,8.09
2022-11-16T04:15:02.911Z,8.00
2022-11-16T04:18:24.532Z,8.13
2022-11-16T04:21:50.261Z,8.11
2022-11-16T04:25:00.598Z,8.14
2022-11-16T04:28:13.305Z,8.11
2022-11-16T04:31:34.706Z,8.11
2022-11-16T04:34:56.034Z,8.08
2022-11-16T04:37:59.826Z,8.07
2022-11-16T04:41:02.725Z,8.09
2022-11-16T04:44:05.534Z,8.09
2022-11-16T04:47:09.621Z,8.12
2022-11-16T04:50:12.693Z,8.15
2022-11-16T04:53:15.889Z,8.13
2022-11-16T04:56:19.038Z,8.13
2022-11-16T04:59:22.334Z,7.98
2022-11-16T05:02:25.589Z,8.00
2022-11-16T05:05:28.379Z,8.16
2022-11-16T05:08:31.690Z,8.15
2022-11-16T05:11:34.872Z,8.04
2022-11-16T05:14:38.211Z,7.99
2022-11-16T05:17:40.659Z,8.12
2022-11-16T05:21:02.733Z,8.13
2022-11-16T05:24:24.331Z,8.15
2022-11-16T05:27:28.967Z,7.99
2022-11-16T05:30:31.228Z,8.04
2022-11-16T05:33:34.288Z,8.03
2022-11-16T05:36:37.058Z,8.04
2022-11-16T05:39:40.144Z,8.07
2022-11-16T05:42:42.477Z,7.99
2022-11-16T05:45:45.315Z,7.95
2022-11-16T05:48:49.690Z,8.02
2022-11-16T05:51:52.669Z,8.04
2022-11-16T05:54:55.062Z,8.05
2022-11-16T05:57:57.942Z,7.93
2022-11-16T06:01:00.304Z,7.92
2022-11-16T06:04:03.159Z,8.06
2022-11-16T06:07:05.893Z,8.06
2022-11-16T06:10:10.005Z,8.05
2022-11-16T06:13:13.643Z,8.04
2022-11-16T06:16:16.731Z,8.04
2022-11-16T06:19:18.973Z,7.94
2022-11-16T06:22:21.786Z,8.00
2022-11-16T06:25:24.151Z,7.87
2022-11-16T06:28:27.714Z,7.99
2022-11-16T06:31:30.229Z,8.01
2022-11-16T06:34:33.971Z,7.99
2022-11-16T06:37:37.508Z,7.96
2022-11-16T06:40:40.659Z,8.00
2022-11-16T06:43:43.291Z,7.98
2022-11-16T06:46:46.248Z,8.10
2022-11-16T06:49:48.865Z,8.15
2022-11-16T06:52:52.150Z,8.18
2022-11-16T06:55:55.470Z,8.18
2022-11-16T06:58:58.251Z,8.23
2022-11-16T07:02:00.932Z,8.23
2022-11-16T07:05:04.997Z,8.22
2022-11-16T07:08:08.124Z,8.21
2022-11-16T07:11:11.315Z,8.29
2022-11-16T07:14:13.944Z,8.20
2022-11-16T07:17:16.823Z,8.28
2022-11-16T07:20:19.435Z,8.32
2022-11-16T07:23:22.673Z,8.18
2022-11-16T07:26:25.438Z,8.26
2022-11-16T07:29:28.656Z,8.29
2022-11-16T07:32:35.954Z,8.29
2022-11-16T07:35:39.348Z,8.16
2022-11-16T07:38:41.896Z,8.34
2022-11-16T07:41:45.252Z,8.38
2022-11-16T07:44:48.772Z,8.28
2022-11-16T07:47:53.385Z,8.36
2022-11-16T07:51:06.043Z,8.26
2022-11-16T07:54:14.575Z,8.37
2022-11-16T07:57:17.406Z,8.46
2022-11-16T08:00:20.106Z,8.45
2022-11-16T08:03:24.893Z,8.38
2022-11-16T08:06:30.140Z,8.41
2022-11-16T08:09:34.805Z,8.49
2022-11-16T08:12:37.494Z,8.42
2022-11-16T08:15:41.081Z,8.50
2022-11-16T08:18:45.000Z,8.47
2022-11-16T08:21:48.495Z,8.50
2022-11-16T08:24:51.043Z,8.51
2022-11-16T08:27:54.848Z,8.56
2022-11-16T08:30:59.321Z,8.47
2022-11-16T08:34:01.969Z,8.52
2022-11-16T08:37:04.550Z,8.45
2022-11-16T08:40:08.669Z,8.56
2022-11-16T08:43:11.489Z,8.58
2022-11-16T08:46:14.644Z,8.57
2022-11-16T08:49:18.494Z,8.52
2022-11-16T08:52:21.745Z,8.62
2022-11-16T08:55:25.156Z,8.59
2022-11-16T08:58:27.943Z,8.62
2022-11-16T09:01:31.457Z,8.61
2022-11-16T09:04:36.999Z,8.67
2022-11-16T09:07:40.720Z,8.61
2022-11-16T09:10:43.402Z,8.52
2022-11-16T09:13:47.385Z,8.56
2022-11-16T09:16:49.906Z,8.74
2022-11-16T09:19:52.209Z,8.69
2022-11-16T09:22:54.716Z,8.67
2022-11-16T09:26:01.568Z,8.77
2022-11-16T09:29:04.473Z,8.83
2022-11-16T09:32:06.938Z,8.81
2022-11-16T09:35:09.891Z,8.66
2022-11-16T09:38:16.159Z,8.67
2022-11-16T09:42:08.406Z,8.76
2022-11-16T09:45:45.799Z,8.81
2022-11-16T09:48:50.111Z,8.86
2022-11-16T09:52:00.574Z,8.86
2022-11-16T09:55:26.403Z,8.81
2022-11-16T09:58:35.128Z,8.85
2022-11-16T10:01:50.321Z,8.90
2022-11-16T10:05:02.961Z,8.87
2022-11-16T10:08:18.685Z,8.76
2022-11-16T10:11:33.412Z,8.82
2022-11-16T10:14:52.092Z,8.94
2022-11-16T10:18:29.678Z,8.96
2022-11-16T10:21:50.089Z,9.01
2022-11-16T10:25:16.618Z,9.06
2022-11-16T10:28:21.891Z,8.95
2022-11-16T10:31:37.726Z,9.04
2022-11-16T10:35:17.027Z,8.95
2022-11-16T10:38:28.372Z,8.99
2022-11-16T10:41:40.180Z,8.92
2022-11-16T10:44:51.716Z,8.93
2022-11-16T10:48:07.862Z,8.92
2022-11-16T10:51:10.690Z,9.05
2022-11-16T10:54:14.269Z,8.99
2022-11-16T10:57:17.933Z,8.97
2022-11-16T11:00:46.882Z,8.93
2022-11-16T11:03:50.827Z,9.02
2022-11-16T11:07:23.335Z,9.00
2022-11-16T11:10:33.526Z,9.00
2022-11-16T11:13:35.975Z,8.87
2022-11-16T11:16:41.390Z,8.96
2022-11-16T11:19:43.648Z,8.96
2022-11-16T11:22:56.241Z,9.08
2022-11-16T11:26:00.489Z,9.11
2022-11-16T11:29:25.069Z,9.05
2022-11-16T11:32:34.278Z,9.11
2022-11-16T11:35:36.982Z,9.10
2022-11-16T11:39:15.952Z,9.02
2022-11-16T11:42:23.288Z,9.10
2022-11-16T11:45:32.517Z,9.11
2022-11-16T11:48:57.749Z,8.99
2022-11-16T11:52:17.322Z,9.09
2022-11-16T11:55:19.918Z,9.02
2022-11-16T11:58:26.391Z,9.06
2022-11-16T12:02:08.089Z,8.97
2022-11-16T12:05:28.346Z,9.14
2022-11-16T12:08:30.496Z,9.12
2022-11-16T12:11:45.403Z,9.13
2022-11-16T12:15:13.591Z,9.11
2022-11-16T12:18:34.648Z,9.08
2022-11-16T12:21:58.490Z,9.05
2022-11-16T12:25:27.373Z,9.10
2022-11-16T12:28:51.692Z,9.07
2022-11-16T12:32:03.077Z,9.07
2022-11-16T12:35:33.664Z,9.10
2022-11-16T12:39:01.056Z,9.11
2022-11-16T12:42:40.536Z,9.16
2022-11-16T12:46:05.010Z,9.17
2022-11-16T12:49:31.844Z,9.24
2022-11-16T12:52:50.169Z,9.26
2022-11-16T12:56:27.618Z,9.26
2022-11-16T12:59:33.077Z,9.20
2022-11-16T13:02:41.041Z,9.26
2022-11-16T13:05:56.062Z,9.26
2022-11-16T13:09:11.116Z,9.11
2022-11-16T13:12:17.416Z,9.25
2022-11-16T13:15:22.376Z,9.12
2022-11-16T13:18:26.589Z,9.10
2022-11-16T13:21:47.860Z,9.26
2022-11-16T13:25:20.225Z,9.25
2022-11-16T13:28:33.637Z,9.18
2022-11-16T13:31:48.451Z,9.19
2022-11-16T13:34:52.396Z,9.24
2022-11-16T13:37:55.054Z,9.10
2022-11-16T13:41:46.267Z,9.24
2022-11-16T13:44:51.525Z,9.22
2022-11-16T13:47:56.830Z,9.24
2022-11-16T13:51:05.975Z,9.13
2022-11-16T13:57:36.431Z,9.15
2022-11-16T14:00:40.694Z,9.11
2022-11-16T14:03:45.948Z,9.09
2022-11-16T14:06:48.202Z,9.11
2022-11-16T14:09:50.809Z,9.09
2022-11-16T14:12:57.157Z,9.08
2022-11-16T14:16:15.001Z,9.05
2022-11-16T14:19:49.143Z,9.09
2022-11-16T14:23:01.163Z,9.01
2022-11-16T14:26:17.226Z,9.01
2022-11-16T14:29:39.995Z,9.05
2022-11-16T14:32:52.423Z,9.01
2022-11-16T14:35:55.076Z,9.05
2022-11-16T14:39:19.887Z,9.04
2022-11-16T14:42:38.160Z,9.00
2022-11-16T14:46:09.378Z,8.98
2022-11-16T14:49:16.134Z,8.88
2022-11-16T14:52:25.531Z,9.04
2022-11-16T14:55:28.766Z,9.06
2022-11-16T14:58:30.978Z,9.05
2022-11-16T15:01:37.033Z,9.09
2022-11-16T15:04:39.426Z,9.06
2022-11-16T15:07:43.173Z,8.97
2022-11-16T15:10:52.146Z,8.93
2022-11-16T15:13:55.644Z,8.96
2022-11-16T15:16:59.569Z,8.95
2022-11-16T15:20:14.206Z,9.04
2022-11-16T15:23:17.383Z,9.01
2022-11-16T15:26:23.893Z,8.96
2022-11-16T15:29:26.189Z,9.06
2022-11-16T15:32:28.849Z,9.11
2022-11-16T15:35:32.797Z,9.05
2022-11-16T15:38:37.587Z,9.08
2022-11-16T15:41:40.382Z,8.96
2022-11-16T15:44:44.114Z,9.05
2022-11-16T15:47:47.415Z,8.99
2022-11-16T15:51:20.063Z,9.03
2022-11-16T15:54:26.604Z,9.06
2022-11-16T15:57:29.224Z,9.09
2022-11-16T16:00:35.142Z,9.10
2022-11-16T16:03:38.653Z,9.00
2022-11-16T16:06:57.231Z,9.04
2022-11-16T16:10:24.389Z,8.99
2022-11-16T16:13:48.490Z,8.86
2022-11-16T16:16:57.265Z,8.87
2022-11-16T16:20:05.694Z,8.99
2022-11-16T16:23:12.846Z,8.94
2022-11-16T16:26:16.667Z,8.84
2022-11-16T16:29:19.204Z,8.85
2022-11-16T16:32:36.916Z,8.91
2022-11-16T16:35:39.475Z,8.80
2022-11-16T16:38:41.697Z,8.94
2022-11-16T16:41:44.505Z,8.91
2022-11-16T16:44:48.013Z,9.03
2022-11-16T16:47:50.576Z,8.99
2022-11-16T16:50:52.838Z,8.97
2022-11-16T16:53:55.410Z,8.92
2022-11-16T16:56:58.073Z,8.93
2022-11-16T17:00:00.726Z,8.94
2022-11-16T17:03:03.036Z,9.10
2022-11-16T17:06:05.838Z,9.09
2022-11-16T17:09:08.080Z,9.08
2022-11-16T17:12:11.115Z,9.05
2022-11-16T17:15:19.046Z,9.03
2022-11-16T17:18:22.644Z,8.87
2022-11-16T17:21:24.938Z,8.97
2022-11-16T17:24:27.476Z,8.95
2022-11-16T17:27:30.735Z,8.95
2022-11-16T17:30:33.222Z,8.95
2022-11-16T17:33:40.302Z,8.93
2022-11-16T17:36:43.303Z,8.94
2022-11-16T17:39:45.524Z,8.83
2022-11-16T17:42:49.596Z,8.95
2022-11-16T17:45:51.977Z,8.92
2022-11-16T17:48:54.741Z,8.92
2022-11-16T17:51:57.284Z,8.79
2022-11-16T17:54:59.835Z,8.93
2022-11-16T17:58:02.469Z,8.96
2022-11-16T18:01:05.371Z,8.96
2022-11-16T18:04:08.175Z,8.93
2022-11-16T18:07:10.677Z,8.94
2022-11-16T18:10:17.950Z,9.03
2022-11-16T18:13:21.805Z,9.01
2022-11-16T18:16:27.627Z,9.06
2022-11-16T18:19:29.955Z,9.08
2022-11-16T18:22:32.658Z,9.10
2022-11-16T18:25:36.888Z,9.06
2022-11-16T18:28:41.182Z,9.06
2022-11-16T18:31:43.697Z,9.01
2022-11-16T18:34:46.591Z,8.99
2022-11-16T18:37:48.909Z,9.02
2022-11-16T18:41:04.483Z,8.98
2022-11-16T18:44:07.932Z,8.87
2022-11-16T18:47:10.544Z,9.02
2022-11-16T18:50:19.009Z,8.99
2022-11-16T18:53:24.013Z,8.87
2022-11-16T18:56:27.237Z,9.01
2022-11-16T18:59:29.835Z,9.03
2022-11-16T19:02:32.168Z,9.02
2022-11-16T19:05:34.777Z,8.91
2022-11-16T19:08:38.650Z,9.07
2022-11-16T19:11:41.375Z,9.08
2022-11-16T19:14:43.623Z,9.08
2022-11-16T19:18:14.233Z,9.01
2022-11-16T19:21:11.051Z,9.10
2022-11-16T19:24:13.667Z,9.03
2022-11-16T19:27:16.735Z,9.15
2022-11-16T19:30:19.530Z,9.02
2022-11-16T19:33:21.790Z,9.10
2022-11-16T19:36:25.557Z,9.09
2022-11-16T19:39:27.832Z,8.97
2022-11-16T19:42:30.636Z,9.08
2022-11-16T19:45:32.835Z,9.05
2022-11-16T19:48:38.337Z,9.04
2022-11-16T19:51:40.586Z,8.93
2022-11-16T19:54:43.065Z,9.02
2022-11-16T19:57:45.478Z,8.99
2022-11-16T20:00:48.110Z,8.88
2022-11-16T20:03:51.058Z,8.99
2022-11-16T20:06:53.356Z,8.97
2022-11-16T20:09:56.012Z,8.96
2022-11-16T20:13:01.089Z,8.87
2022-11-16T20:16:03.681Z,8.96
2022-11-16T20:19:07.058Z,8.91
2022-11-16T20:22:09.657Z,8.94
2022-11-16T20:25:11.914Z,8.85
2022-11-16T20:28:14.418Z,8.99
2022-11-16T20:31:21.937Z,8.96
2022-11-16T20:34:24.977Z,8.90
2022-11-16T20:37:27.219Z,9.04
2022-11-16T20:40:29.877Z,8.94
2022-11-16T20:43:32.384Z,9.06
2022-11-16T20:46:36.724Z,8.96
2022-11-16T20:49:39.011Z,9.10
2022-11-16T20:52:44.306Z,9.13
2022-11-16T20:55:49.978Z,9.06
2022-11-16T20:58:52.556Z,9.12
2022-11-16T21:01:55.297Z,9.16
2022-11-16T21:05:00.501Z,9.06
2022-11-16T21:08:02.923Z,9.18
2022-11-16T21:11:13.656Z,9.05
2022-11-16T21:14:15.887Z,9.18
2022-11-16T21:17:18.680Z,9.16
2022-11-16T21:20:27.347Z,9.21
2022-11-16T21:23:32.479Z,9.16
2022-11-16T21:26:35.535Z,9.20
2022-11-16T21:29:38.065Z,9.20
2022-11-16T21:32:40.363Z,9.10
2022-11-16T21:35:42.808Z,9.18
2022-11-16T21:38:46.021Z,9.17
2022-11-16T21:41:48.646Z,9.06
2022-11-16T21:44:51.011Z,9.18
2022-11-16T21:47:53.620Z,9.21
2022-11-16T21:51:16.513Z,9.19
2022-11-16T21:54:19.235Z,9.20
2022-11-16T21:57:21.836Z,9.19
2022-11-16T22:00:25.398Z,9.15
2022-11-16T22:03:29.872Z,9.15
2022-11-16T22:06:50.592Z,9.11
2022-11-16T22:09:53.217Z,9.12
2022-11-16T22:12:55.424Z,9.15
2022-11-16T22:15:57.953Z,9.14
2022-11-16T22:19:00.322Z,8.99
2022-11-16T22:22:03.054Z,9.14
2022-11-16T22:25:05.974Z,9.13
2022-11-16T22:28:23.964Z,9.04
2022-11-16T22:31:26.265Z,9.15
2022-11-16T22:34:28.769Z,9.02
2022-11-16T22:37:31.417Z,9.11
2022-11-16T22:40:33.984Z,9.15
2022-11-16T22:43:37.388Z,9.16
2022-11-16T22:46:41.043Z,9.21
2022-11-16T22:49:43.291Z,9.16
2022-11-16T22:52:45.944Z,9.02
2022-11-16T22:55:48.145Z,9.05
2022-11-16T22:58:50.645Z,9.17
2022-11-16T23:01:52.942Z,9.15
2022-11-16T23:04:55.419Z,9.14
2022-11-16T23:07:57.838Z,9.14
2022-11-16T23:11:19.956Z,9.18
2022-11-16T23:14:41.126Z,9.19
2022-11-16T23:17:45.374Z,9.12
2022-11-16T23:21:06.062Z,9.03
2022-11-16T23:24:31.550Z,9.15
2022-11-16T23:27:51.477Z,9.04
2022-11-16T23:30:54.026Z,9.15
2022-11-16T23:33:56.273Z,9.12
2022-11-16T23:37:03.345Z,9.18
2022-11-16T23:40:06.082Z,9.22
2022-11-16T23:43:28.876Z,9.22
2022-11-16T23:46:32.432Z,9.07
2022-11-16T23:49:34.965Z,9.18
2022-11-16T23:52:37.203Z,9.09
2022-11-16T23:55:40.181Z,9.06
2022-11-16T23:58:42.435Z,9.16
